Accueil
METAR-TAF:

METAR-TAF

Aéroports :

Port-Soudan, Soudan

latitude: 19-26N, longitude: 037-14E, altitude: 138 m

METAR: absent

Heure: 20:02 (18:02 UTC)

Prévision

Le bulletin a été fait il y a 7 heures et 2 minutes, à 11:00 UTC
Prévision valable du 23 à 12 UTC au 24 à 18 UTC
Vent 8 kt de est/nord-est avec des rafales jusqu'à 18 kt
Visibilité 10 km ou plus
Quelques nuages à une hauteur de 3000 ft
Nuages épars à une hauteur de 13000 ft
Evoluant progressivement
du 23 à 21 UTC au 23 à 23 UTC
Vent 8 kt de ouest/nord-ouest

TAF: HSPN 231100Z 2312/2418 06008G18KT 9999 FEW030 SCT130 BECMG 2321/2323 29008KT

Observations et prévisions météorologiques de plus de 4000 aéroports (messages METAR et TAF).

Les stations disponibles sont représentées par des disques jaunes et rouges sur la carte.

Passer la souris dessus pour voir le nom de la station.

Cliquer dessus pour voir les observations et prévisions météorologiques.

Pour changer de carte: cliquez sur les boutons verts avec une croix noire pour zoomer, sur le bouton vert avec un tiret pour effectuer un zoom arrière, ou sur les flèches vertes pour les cartes adjacentes.


METAR-TAF: